AAL81 EGLL-KDFW
Flight info
| Callsign | AAL81 |
|---|---|
| Flight time | N/A |
| Altitude | 32000 |
| Route | CPT L9 BUCGO DCT FELCA DCT NICXI DCT BAKUR DCT ERABI DCT DOGAL/M084F340 DCT 54N020W 53N030W 52N040W 51N050W DCT ALLRY/N0475F340 N476B TOPPS/N0479F360 DCT BGR J49 BUFFY DCT IZZEE DCT HACKS DCT HNN DCT ENGRA DCT BNA DCT TROVE/N0477F380 DCT EDWAH DCT FEWWW BRDJE5 |
| Aircraft | B77W/H-SDE1E2E3FGHIJ2J3J4J5M1RWXY/LB1D1 |
Departure
| Time | 2026-04-30 18:54 |
|---|---|
| Airport | London Heathrow Airport (EGLL) |
Arrival
| Time | N/A |
|---|---|
| Airport | Dallas Fort Worth International Airport (KDFW) |
| Time | Latitude | Longitude | Altitude | Speed | Heading |
|---|---|---|---|---|---|
| 2026-04-30 18:02 | 51.47316 | -0.46408 | 91 ft | 0 kts | 24° |
| 2026-04-30 18:39 | 51.47305 | -0.46416 | 95 ft | 4 kts | 24° |
| 2026-04-30 18:39 | 51.47281 | -0.46434 | 91 ft | 3 kts | 24° |
| 2026-04-30 18:39 | 51.47263 | -0.46445 | 93 ft | 4 kts | 348° |
| 2026-04-30 18:40 | 51.47242 | -0.46427 | 92 ft | 2 kts | 326° |
| 2026-04-30 18:40 | 51.47222 | -0.46404 | 93 ft | 4 kts | 326° |
| 2026-04-30 18:40 | 51.47200 | -0.46380 | 94 ft | 2 kts | 326° |
| 2026-04-30 18:40 | 51.47198 | -0.46378 | 94 ft | 0 kts | 326° |
| 2026-04-30 18:45 | 51.47119 | -0.46863 | 91 ft | 7 kts | 181° |
| 2026-04-30 18:45 | 51.47065 | -0.46863 | 91 ft | 10 kts | 179° |
| 2026-04-30 18:45 | 51.46988 | -0.46863 | 91 ft | 11 kts | 180° |
| 2026-04-30 18:46 | 51.46911 | -0.46862 | 93 ft | 11 kts | 179° |
| 2026-04-30 18:46 | 51.46834 | -0.46860 | 93 ft | 11 kts | 179° |
| 2026-04-30 18:46 | 51.46764 | -0.46896 | 96 ft | 11 kts | 231° |
| 2026-04-30 18:46 | 51.46747 | -0.47017 | 94 ft | 11 kts | 266° |
| 2026-04-30 18:47 | 51.46746 | -0.47142 | 94 ft | 11 kts | 270° |
| 2026-04-30 18:47 | 51.46746 | -0.47267 | 94 ft | 11 kts | 271° |
| 2026-04-30 18:47 | 51.46746 | -0.47392 | 94 ft | 11 kts | 270° |
| 2026-04-30 18:47 | 51.46745 | -0.47518 | 93 ft | 11 kts | 269° |
| 2026-04-30 18:48 | 51.46745 | -0.47643 | 92 ft | 11 kts | 270° |
| 2026-04-30 18:48 | 51.46745 | -0.47768 | 92 ft | 11 kts | 270° |
| 2026-04-30 18:48 | 51.46745 | -0.47894 | 91 ft | 11 kts | 270° |
| 2026-04-30 18:48 | 51.46743 | -0.48019 | 91 ft | 11 kts | 269° |
| 2026-04-30 18:49 | 51.46743 | -0.48060 | 92 ft | 0 kts | 269° |
| 2026-04-30 18:50 | 51.46742 | -0.48164 | 91 ft | 12 kts | 269° |
| 2026-04-30 18:50 | 51.46741 | -0.48303 | 91 ft | 12 kts | 269° |
| 2026-04-30 18:50 | 51.46740 | -0.48440 | 91 ft | 12 kts | 269° |
| 2026-04-30 18:51 | 51.46740 | -0.48579 | 91 ft | 12 kts | 270° |
| 2026-04-30 18:51 | 51.46731 | -0.48701 | 96 ft | 10 kts | 240° |
| 2026-04-30 18:51 | 51.46670 | -0.48743 | 95 ft | 10 kts | 189° |
| 2026-04-30 18:51 | 51.46617 | -0.48760 | 94 ft | 8 kts | 192° |
| 2026-04-30 18:52 | 51.46565 | -0.48778 | 93 ft | 8 kts | 190° |
| 2026-04-30 18:52 | 51.46514 | -0.48763 | 93 ft | 8 kts | 150° |
| 2026-04-30 18:52 | 51.46484 | -0.48694 | 96 ft | 8 kts | 107° |
| 2026-04-30 18:52 | 51.46480 | -0.48627 | 91 ft | 0 kts | 91° |
| 2026-04-30 18:53 | 51.46479 | -0.48548 | 91 ft | 26 kts | 91° |
| 2026-04-30 18:53 | 51.46483 | -0.47866 | 94 ft | 93 kts | 89° |
| 2026-04-30 18:54 | 51.46490 | -0.46530 | 93 ft | 147 kts | 89° |
| 2026-04-30 18:54 | 51.46510 | -0.44661 | 200 ft | 177 kts | 89° |
| 2026-04-30 18:54 | 51.46504 | -0.42695 | 696 ft | 179 kts | 90° |
| 2026-04-30 18:54 | 51.46504 | -0.40704 | 1342 ft | 171 kts | 93° |
| 2026-04-30 18:55 | 51.46191 | -0.38823 | 1585 ft | 186 kts | 126° |
| 2026-04-30 18:55 | 51.43558 | -0.37539 | 1932 ft | 240 kts | 193° |
| 2026-04-30 18:55 | 51.42086 | -0.38948 | 2445 ft | 254 kts | 218° |
| 2026-04-30 18:56 | 51.40058 | -0.43621 | 3648 ft | 274 kts | 256° |
| 2026-04-30 18:56 | 51.40243 | -0.46677 | 4372 ft | 283 kts | 291° |
| 2026-04-30 18:56 | 51.41460 | -0.49127 | 5150 ft | 285 kts | 325° |
| 2026-04-30 18:57 | 51.44936 | -0.52105 | 6004 ft | 290 kts | 312° |
| 2026-04-30 18:57 | 51.46012 | -0.54818 | 6002 ft | 288 kts | 286° |
| 2026-04-30 18:57 | 51.46563 | -0.57844 | 5986 ft | 284 kts | 287° |
| 2026-04-30 18:58 | 51.48666 | -0.63214 | 6003 ft | 288 kts | 304° |
| 2026-04-30 18:58 | 51.49849 | -0.65836 | 6020 ft | 291 kts | 304° |
| 2026-04-30 18:58 | 51.51038 | -0.68489 | 5990 ft | 291 kts | 302° |
| 2026-04-30 18:59 | 51.52030 | -0.74386 | 5995 ft | 277 kts | 266° |
| 2026-04-30 19:00 | 51.51727 | -0.83782 | 5980 ft | 279 kts | 262° |
| 2026-04-30 19:00 | 51.51555 | -0.86873 | 5972 ft | 275 kts | 261° |
| 2026-04-30 19:00 | 51.51176 | -0.92978 | 5988 ft | 275 kts | 261° |
| 2026-04-30 19:01 | 51.50770 | -0.99117 | 6014 ft | 277 kts | 260° |
| 2026-04-30 19:01 | 51.50564 | -1.02168 | 6006 ft | 278 kts | 260° |
| 2026-04-30 19:02 | 51.50144 | -1.08356 | 5974 ft | 278 kts | 260° |
| 2026-04-30 19:02 | 51.49718 | -1.14544 | 5961 ft | 277 kts | 261° |
| 2026-04-30 19:03 | 51.49417 | -1.20655 | 5953 ft | 273 kts | 276° |
| 2026-04-30 19:03 | 51.51617 | -1.25680 | 6593 ft | 289 kts | 315° |
| 2026-04-30 19:04 | 51.54588 | -1.30139 | 7763 ft | 295 kts | 315° |
| 2026-04-30 19:04 | 51.57630 | -1.34709 | 8932 ft | 302 kts | 315° |
| 2026-04-30 19:05 | 51.60708 | -1.39407 | 10125 ft | 306 kts | 310° |
| 2026-04-30 19:05 | 51.62899 | -1.45503 | 10583 ft | 334 kts | 294° |
| 2026-04-30 19:06 | 51.65133 | -1.52567 | 10909 ft | 374 kts | 295° |
| 2026-04-30 19:06 | 51.66372 | -1.56362 | 11237 ft | 389 kts | 296° |
| 2026-04-30 19:06 | 51.68941 | -1.64207 | 12436 ft | 404 kts | 294° |
| 2026-04-30 19:07 | 51.70716 | -1.72829 | 13955 ft | 408 kts | 278° |
| 2026-04-30 19:07 | 51.71097 | -1.77375 | 14636 ft | 410 kts | 272° |
| 2026-04-30 19:08 | 51.71702 | -1.86636 | 16078 ft | 418 kts | 273° |
| 2026-04-30 19:08 | 51.72369 | -1.96057 | 17468 ft | 427 kts | 272° |
| 2026-04-30 19:08 | 51.72710 | -2.00845 | 18143 ft | 432 kts | 272° |
| 2026-04-30 19:09 | 51.73390 | -2.10516 | 19364 ft | 440 kts | 272° |
| 2026-04-30 19:09 | 51.73732 | -2.15438 | 19966 ft | 443 kts | 272° |
| 2026-04-30 19:09 | 51.74077 | -2.20410 | 20564 ft | 447 kts | 272° |
| 2026-04-30 19:10 | 51.74771 | -2.30465 | 21709 ft | 455 kts | 272° |
| 2026-04-30 19:10 | 51.75472 | -2.40719 | 22835 ft | 462 kts | 272° |
| 2026-04-30 19:11 | 51.75823 | -2.45894 | 23435 ft | 465 kts | 272° |
| 2026-04-30 19:11 | 51.76517 | -2.56340 | 24432 ft | 470 kts | 272° |
| 2026-04-30 19:11 | 51.76846 | -2.61609 | 24927 ft | 472 kts | 272° |
| 2026-04-30 19:12 | 51.77177 | -2.66899 | 25406 ft | 474 kts | 272° |
| 2026-04-30 19:12 | 51.77512 | -2.72137 | 25858 ft | 476 kts | 272° |
| 2026-04-30 19:12 | 51.77856 | -2.77473 | 26303 ft | 478 kts | 272° |
| 2026-04-30 19:13 | 51.78542 | -2.88211 | 27314 ft | 483 kts | 272° |
| 2026-04-30 19:13 | 51.79224 | -2.99065 | 28146 ft | 488 kts | 272° |
| 2026-04-30 19:13 | 51.79562 | -3.04538 | 28524 ft | 490 kts | 272° |
| 2026-04-30 19:14 | 51.79899 | -3.10029 | 28888 ft | 492 kts | 272° |
| 2026-04-30 19:14 | 51.80235 | -3.15546 | 29230 ft | 494 kts | 272° |
| 2026-04-30 19:14 | 51.80570 | -3.21087 | 29574 ft | 496 kts | 272° |
| 2026-04-30 19:14 | 51.80903 | -3.26639 | 29989 ft | 495 kts | 272° |
| 2026-04-30 19:15 | 51.81233 | -3.32169 | 30457 ft | 493 kts | 272° |
| 2026-04-30 19:15 | 51.81878 | -3.43115 | 31378 ft | 486 kts | 272° |
| 2026-04-30 19:15 | 51.82190 | -3.48473 | 31825 ft | 483 kts | 272° |
| 2026-04-30 19:16 | 51.82524 | -3.53890 | 32141 ft | 484 kts | 274° |
| 2026-04-30 19:16 | 51.83104 | -3.59322 | 32118 ft | 492 kts | 278° |
| 2026-04-30 19:17 | 51.85259 | -3.75372 | 32103 ft | 485 kts | 279° |